SHT22A EGLL-EGJB
Flight info
| Callsign | SHT22A |
|---|---|
| Flight time | N/A |
| Altitude | 18000 |
| Route | N0390F180 GASGU2J GASGU N866 SAM N63 LELNA DCT |
| Aircraft | A319/M-SDE3FGIJ1KRWXY/LB1 |
Departure
| Time | N/A |
|---|---|
| Airport | London Heathrow Airport (EGLL) |
Arrival
| Time | 2026-05-05 12:00 |
|---|---|
| Airport | Guernsey Airport (EGJB) |
| Time | Latitude | Longitude | Altitude | Speed | Heading |
|---|---|---|---|---|---|
| 2026-05-05 11:47 | 50.11846 | -2.00209 | 17983 ft | 381 kts | 205° |
| 2026-05-05 11:47 | 50.09494 | -2.02016 | 17983 ft | 381 kts | 205° |
| 2026-05-05 11:48 | 50.04729 | -2.05660 | 17987 ft | 381 kts | 205° |
| 2026-05-05 11:48 | 50.02362 | -2.07472 | 17599 ft | 377 kts | 205° |
| 2026-05-05 11:48 | 50.00025 | -2.09287 | 17046 ft | 373 kts | 208° |
| 2026-05-05 11:49 | 49.97895 | -2.11555 | 16540 ft | 369 kts | 220° |
| 2026-05-05 11:49 | 49.96111 | -2.14380 | 16039 ft | 364 kts | 229° |
| 2026-05-05 11:49 | 49.94445 | -2.17328 | 15539 ft | 360 kts | 229° |
| 2026-05-05 11:49 | 49.92809 | -2.20202 | 15058 ft | 356 kts | 229° |
| 2026-05-05 11:50 | 49.91170 | -2.23064 | 14556 ft | 353 kts | 229° |
| 2026-05-05 11:50 | 49.89542 | -2.25898 | 14064 ft | 351 kts | 229° |
| 2026-05-05 11:50 | 49.87921 | -2.28716 | 13552 ft | 348 kts | 229° |
| 2026-05-05 11:50 | 49.86311 | -2.31510 | 13054 ft | 344 kts | 229° |
| 2026-05-05 11:51 | 49.84742 | -2.34227 | 12586 ft | 340 kts | 229° |
| 2026-05-05 11:51 | 49.83172 | -2.36947 | 12116 ft | 337 kts | 229° |
| 2026-05-05 11:51 | 49.81608 | -2.39661 | 11649 ft | 334 kts | 229° |
| 2026-05-05 11:51 | 49.80066 | -2.42333 | 11183 ft | 331 kts | 229° |
| 2026-05-05 11:52 | 49.78536 | -2.44985 | 10737 ft | 328 kts | 230° |
| 2026-05-05 11:52 | 49.77021 | -2.47616 | 10327 ft | 325 kts | 230° |
| 2026-05-05 11:52 | 49.75558 | -2.50155 | 10206 ft | 313 kts | 229° |
| 2026-05-05 11:52 | 49.74127 | -2.52624 | 10049 ft | 305 kts | 229° |
| 2026-05-05 11:53 | 49.72719 | -2.55049 | 9980 ft | 303 kts | 230° |
| 2026-05-05 11:53 | 49.71303 | -2.57486 | 9552 ft | 303 kts | 228° |
| 2026-05-05 11:53 | 49.69731 | -2.59607 | 9074 ft | 299 kts | 214° |
| 2026-05-05 11:53 | 49.67934 | -2.61192 | 8604 ft | 297 kts | 208° |
| 2026-05-05 11:54 | 49.66122 | -2.62715 | 8134 ft | 295 kts | 208° |
| 2026-05-05 11:54 | 49.64323 | -2.64234 | 7663 ft | 293 kts | 209° |
| 2026-05-05 11:54 | 49.62534 | -2.65749 | 7219 ft | 291 kts | 209° |
| 2026-05-05 11:54 | 49.60797 | -2.67223 | 6775 ft | 285 kts | 209° |
| 2026-05-05 11:55 | 49.59068 | -2.68685 | 6334 ft | 280 kts | 209° |
| 2026-05-05 11:55 | 49.57371 | -2.70117 | 5879 ft | 276 kts | 209° |
| 2026-05-05 11:55 | 49.55702 | -2.71525 | 5436 ft | 272 kts | 209° |
| 2026-05-05 11:55 | 49.54052 | -2.72915 | 5004 ft | 268 kts | 209° |
| 2026-05-05 11:56 | 49.52424 | -2.74280 | 4572 ft | 264 kts | 208° |
| 2026-05-05 11:56 | 49.50821 | -2.75626 | 4140 ft | 259 kts | 208° |
| 2026-05-05 11:56 | 49.49266 | -2.76927 | 3828 ft | 249 kts | 208° |
| 2026-05-05 11:56 | 49.47766 | -2.78180 | 3530 ft | 240 kts | 208° |
| 2026-05-05 11:57 | 49.46334 | -2.79342 | 3225 ft | 231 kts | 202° |
| 2026-05-05 11:57 | 49.44800 | -2.79564 | 3026 ft | 213 kts | 160° |
| 2026-05-05 11:57 | 49.43646 | -2.78484 | 2918 ft | 188 kts | 127° |
| 2026-05-05 11:57 | 49.43084 | -2.76775 | 2597 ft | 172 kts | 96° |
| 2026-05-05 11:58 | 49.43067 | -2.74963 | 2182 ft | 168 kts | 83° |
| 2026-05-05 11:58 | 49.43121 | -2.73218 | 1885 ft | 158 kts | 83° |
| 2026-05-05 11:58 | 49.43171 | -2.71573 | 1667 ft | 153 kts | 83° |
| 2026-05-05 11:58 | 49.43217 | -2.69979 | 1463 ft | 140 kts | 83° |
| 2026-05-05 11:59 | 49.43256 | -2.68580 | 1266 ft | 125 kts | 82° |
| 2026-05-05 11:59 | 49.43294 | -2.67274 | 1099 ft | 121 kts | 81° |
| 2026-05-05 11:59 | 49.43331 | -2.65979 | 940 ft | 121 kts | 81° |
| 2026-05-05 11:59 | 49.43372 | -2.64707 | 775 ft | 119 kts | 82° |
| 2026-05-05 12:00 | 49.43411 | -2.63436 | 622 ft | 116 kts | 79° |
| 2026-05-05 12:00 | 49.43445 | -2.62195 | 430 ft | 118 kts | 82° |
| 2026-05-05 12:00 | 49.43475 | -2.60943 | 313 ft | 111 kts | 81° |
| 2026-05-05 12:00 | 49.43503 | -2.60044 | 316 ft | 44 kts | 88° |
| 2026-05-05 12:01 | 49.43511 | -2.59730 | 328 ft | 28 kts | 88° |
| 2026-05-05 12:01 | 49.43520 | -2.59430 | 334 ft | 23 kts | 88° |
| 2026-05-05 12:01 | 49.43522 | -2.59244 | 334 ft | 10 kts | 99° |
| 2026-05-05 12:01 | 49.43456 | -2.59197 | 334 ft | 11 kts | 178° |
| 2026-05-05 12:02 | 49.43392 | -2.59202 | 334 ft | 6 kts | 198° |
| 2026-05-05 12:02 | 49.43371 | -2.59265 | 333 ft | 4 kts | 270° |
| 2026-05-05 12:02 | 49.43370 | -2.59327 | 334 ft | 8 kts | 268° |
| 2026-05-05 12:02 | 49.43368 | -2.59417 | 334 ft | 2 kts | 268° |
| 2026-05-05 12:03 | 49.43367 | -2.59450 | 331 ft | 0 kts | 267° |
| 2026-05-05 12:04 | 49.43366 | -2.59467 | 331 ft | 5 kts | 267° |
| 2026-05-05 12:04 | 49.43364 | -2.59550 | 331 ft | 8 kts | 267° |
| 2026-05-05 12:04 | 49.43361 | -2.59651 | 329 ft | 9 kts | 268° |
| 2026-05-05 12:04 | 49.43333 | -2.59687 | 329 ft | 7 kts | 179° |
| 2026-05-05 12:05 | 49.43291 | -2.59687 | 328 ft | 6 kts | 179° |
| 2026-05-05 12:05 | 49.43264 | -2.59685 | 328 ft | 2 kts | 178° |
| 2026-05-05 12:05 | 49.43255 | -2.59684 | 328 ft | 0 kts | 178° |